createdAt,value
2023-02-06T00:02:40.118Z,21.4
2023-02-06T00:05:42.192Z,20.4
2023-02-06T00:08:44.049Z,20.5
2023-02-06T00:11:46.006Z,21.7
2023-02-06T00:14:47.964Z,20.7
2023-02-06T00:17:49.919Z,21.1
2023-02-06T00:20:51.829Z,21.2
2023-02-06T00:23:53.819Z,19.8
2023-02-06T00:26:55.758Z,21.5
2023-02-06T00:29:57.720Z,21.8
2023-02-06T00:32:59.689Z,19.6
2023-02-06T00:36:01.646Z,21.6
2023-02-06T00:39:03.597Z,18.5
2023-02-06T00:42:05.582Z,16.6
2023-02-06T00:45:07.540Z,18.3
2023-02-06T00:48:09.490Z,22.1
2023-02-06T00:51:11.445Z,20.1
2023-02-06T00:54:13.401Z,22.2
2023-02-06T00:57:15.362Z,17.8
2023-02-06T01:00:17.434Z,20.7
2023-02-06T01:03:19.316Z,20.9
2023-02-06T01:06:21.256Z,20.3
2023-02-06T01:09:23.222Z,21
2023-02-06T01:12:25.204Z,17.6
2023-02-06T01:15:27.197Z,17.7
2023-02-06T01:18:29.130Z,19.6
2023-02-06T01:21:31.071Z,16.5
2023-02-06T01:24:33.078Z,14.8
2023-02-06T01:27:35.040Z,16.3
2023-02-06T01:30:37.014Z,17.9
2023-02-06T01:33:38.937Z,15.7
2023-02-06T01:36:40.896Z,14.8
2023-02-06T01:39:42.880Z,13.6
2023-02-06T01:42:44.833Z,13.2
2023-02-06T01:45:46.756Z,13.2
2023-02-06T01:48:48.715Z,13.1
2023-02-06T01:51:50.751Z,12.5
2023-02-06T01:54:52.662Z,13.3
2023-02-06T01:57:54.623Z,15.2
2023-02-06T02:00:56.669Z,12
2023-02-06T02:03:58.521Z,11.7
2023-02-06T02:07:00.556Z,11.2
2023-02-06T02:10:02.489Z,12.2
2023-02-06T02:13:04.452Z,14.6
2023-02-06T02:16:06.410Z,13.3
2023-02-06T02:19:08.339Z,13
2023-02-06T02:22:10.320Z,14.5
2023-02-06T02:25:12.288Z,13.2
2023-02-06T02:28:14.318Z,11.1
2023-02-06T02:31:16.286Z,11.4
2023-02-06T02:34:18.203Z,12.4
2023-02-06T02:37:20.139Z,12.7
2023-02-06T02:40:22.104Z,13.9
2023-02-06T02:43:24.054Z,12.8
2023-02-06T02:46:26.052Z,14.5
2023-02-06T02:49:27.992Z,12.2
2023-02-06T02:52:29.973Z,11.1
2023-02-06T02:55:31.923Z,10.9
2023-02-06T02:58:33.860Z,11.2
2023-02-06T03:01:35.811Z,14.4
2023-02-06T03:04:37.878Z,13.9
2023-02-06T03:07:39.872Z,11.8
2023-02-06T03:10:41.794Z,11.4
2023-02-06T03:13:43.747Z,12.8
2023-02-06T03:16:45.858Z,12.5
2023-02-06T03:19:47.673Z,11.9
2023-02-06T03:22:49.623Z,11.8
2023-02-06T03:25:51.606Z,15.4
2023-02-06T03:28:53.556Z,13.6
2023-02-06T03:31:55.577Z,13.4
2023-02-06T03:34:57.531Z,14.2
2023-02-06T03:37:59.499Z,15.2
2023-02-06T03:41:01.450Z,12.7
2023-02-06T03:44:03.372Z,11.9
2023-02-06T03:47:05.344Z,13.3
2023-02-06T03:50:07.311Z,14.1
2023-02-06T03:53:09.278Z,16.1
2023-02-06T03:56:11.280Z,15.2
2023-02-06T03:59:13.239Z,15.9
2023-02-06T04:02:15.210Z,13.6
2023-02-06T04:05:17.128Z,14.8
2023-02-06T04:08:19.077Z,16.4
2023-02-06T04:11:21.092Z,13.9
2023-02-06T04:14:23.033Z,16.5
2023-02-06T04:17:40.960Z,14.1
2023-02-06T04:20:26.999Z,16.6
2023-02-06T04:23:28.918Z,16.1
2023-02-06T04:26:30.907Z,16.1
2023-02-06T04:29:32.928Z,13.5
2023-02-06T04:32:34.882Z,17.8
2023-02-06T04:35:37.113Z,14.7
2023-02-06T04:38:38.822Z,14
2023-02-06T04:41:40.773Z,13.3
2023-02-06T04:44:42.720Z,12.2
2023-02-06T04:47:44.719Z,13
2023-02-06T04:50:46.685Z,12.4
2023-02-06T04:53:48.633Z,15.7
2023-02-06T04:56:50.572Z,15.1
2023-02-06T04:59:52.521Z,15.4
2023-02-06T05:02:54.552Z,13.8
2023-02-06T05:05:56.456Z,14.4
2023-02-06T05:08:58.412Z,12.6
2023-02-06T05:12:00.436Z,18.1
2023-02-06T05:15:02.424Z,18.3
2023-02-06T05:18:04.318Z,18.1
2023-02-06T05:21:06.290Z,17.5
2023-02-06T05:24:08.323Z,21.8
2023-02-06T05:27:10.262Z,19.4
2023-02-06T05:30:12.197Z,19.5
2023-02-06T05:33:14.134Z,17.7
2023-02-06T05:36:16.133Z,23.2
2023-02-06T05:39:18.116Z,19.1
2023-02-06T05:42:20.106Z,20.4
2023-02-06T05:45:22.049Z,17.9
2023-02-06T05:48:24.003Z,21.4
2023-02-06T05:51:25.966Z,20.5
2023-02-06T05:54:27.954Z,18.7
2023-02-06T05:57:29.932Z,20.1
2023-02-06T06:00:31.919Z,21.3
2023-02-06T06:03:34.048Z,18.5
2023-02-06T06:06:35.834Z,19.4
2023-02-06T06:09:37.789Z,16.5
2023-02-06T06:12:39.752Z,16.3
2023-02-06T06:15:41.703Z,15.8
2023-02-06T06:18:43.700Z,14.8
2023-02-06T06:21:45.636Z,15.8
2023-02-06T06:24:47.592Z,18.2
2023-02-06T06:27:49.644Z,19.8
2023-02-06T06:30:51.650Z,19.2
2023-02-06T06:33:53.477Z,20.2
2023-02-06T06:36:55.433Z,18.5
2023-02-06T06:39:57.391Z,20.9
2023-02-06T06:42:59.383Z,18.4
2023-02-06T06:46:01.323Z,19.1
2023-02-06T06:49:03.268Z,18.4
2023-02-06T06:52:08.796Z,19.7
2023-02-06T06:55:07.191Z,18.7
2023-02-06T06:58:09.173Z,23.3
2023-02-06T07:01:11.153Z,20.6
2023-02-06T07:04:13.093Z,20
2023-02-06T07:07:15.118Z,21.1
2023-02-06T07:10:17.046Z,21.7
2023-02-06T07:13:18.982Z,20.7
2023-02-06T07:16:20.953Z,18.3
2023-02-06T07:19:22.942Z,18.9
2023-02-06T07:22:24.870Z,17.2
2023-02-06T07:25:26.859Z,14.2
2023-02-06T07:28:28.833Z,14.9
2023-02-06T07:31:30.814Z,10.4
2023-02-06T07:34:32.742Z,12.6
2023-02-06T07:37:34.738Z,14.1
2023-02-06T07:40:44.901Z,9.8
2023-02-06T07:43:38.660Z,8.8
2023-02-06T07:46:40.583Z,8.4
2023-02-06T07:49:42.545Z,8.2
2023-02-06T07:52:44.561Z,7.5
2023-02-06T07:55:46.576Z,6.3
2023-02-06T07:58:48.466Z,9.1
2023-02-06T08:01:50.435Z,7.7
2023-02-06T08:04:52.417Z,6.5
2023-02-06T08:07:54.396Z,7.2
2023-02-06T08:10:56.362Z,7.8
2023-02-06T08:13:58.344Z,6.4
2023-02-06T08:17:00.362Z,7.8
2023-02-06T08:20:02.301Z,7.3
2023-02-06T08:23:04.257Z,5.2
2023-02-06T08:26:06.247Z,7.8
2023-02-06T08:29:08.202Z,9
2023-02-06T08:32:10.176Z,6.4
2023-02-06T08:35:12.163Z,6
2023-02-06T08:38:14.079Z,5.2
2023-02-06T08:41:16.082Z,10.4
2023-02-06T08:44:18.010Z,8.1
2023-02-06T08:47:19.988Z,5.9
2023-02-06T08:50:21.937Z,4.5
2023-02-06T08:53:23.894Z,7
2023-02-06T08:56:25.877Z,7
2023-02-06T08:59:27.839Z,6.7
2023-02-06T09:02:29.818Z,5.1
2023-02-06T09:05:31.771Z,5.4
2023-02-06T09:08:33.778Z,5.9
2023-02-06T09:11:35.716Z,8.6
2023-02-06T09:14:37.707Z,8
2023-02-06T09:17:39.671Z,7.7
2023-02-06T09:20:41.600Z,5.6
2023-02-06T09:23:43.578Z,8.1
2023-02-06T09:26:58.834Z,5.2
2023-02-06T09:29:47.493Z,8.3
2023-02-06T09:32:49.449Z,5.5
2023-02-06T09:35:51.412Z,8.6
2023-02-06T09:38:53.389Z,7.2
2023-02-06T09:41:55.358Z,9.3
2023-02-06T09:44:57.334Z,6.8
2023-02-06T09:47:59.277Z,6.2
2023-02-06T09:51:01.304Z,6.3
2023-02-06T09:54:03.233Z,4.1
2023-02-06T09:57:05.189Z,5.5
2023-02-06T10:00:07.150Z,8.8
2023-02-06T10:03:09.086Z,5.4
2023-02-06T10:06:11.057Z,6.8
2023-02-06T10:09:13.018Z,5.9
2023-02-06T10:12:14.975Z,6.6
2023-02-06T10:15:16.946Z,4.2
2023-02-06T10:18:18.917Z,6.3
2023-02-06T10:21:20.862Z,6.5
2023-02-06T10:24:22.821Z,6.1
2023-02-06T10:27:24.798Z,9.2
2023-02-06T10:30:26.748Z,8.9
2023-02-06T10:33:28.718Z,6.7
2023-02-06T10:36:30.692Z,5.5
2023-02-06T10:39:32.668Z,6.1
2023-02-06T10:42:34.644Z,8.5
2023-02-06T10:45:36.989Z,7
2023-02-06T10:48:38.525Z,8.1
2023-02-06T10:51:40.486Z,6.9
2023-02-06T10:54:42.475Z,6.4
2023-02-06T10:57:44.441Z,7.9
2023-02-06T11:00:46.428Z,5.7
2023-02-06T11:03:48.348Z,8.1
2023-02-06T11:06:50.299Z,9
2023-02-06T11:09:52.268Z,6.6
2023-02-06T11:12:54.230Z,6.5
2023-02-06T11:15:56.184Z,7.2
2023-02-06T11:18:58.176Z,6.6
2023-02-06T11:22:00.116Z,7.2
2023-02-06T11:25:02.204Z,6.3
2023-02-06T11:28:04.185Z,8.4
2023-02-06T11:31:06.087Z,6.3
2023-02-06T11:34:07.972Z,6.4
2023-02-06T11:37:09.895Z,8
2023-02-06T11:40:11.891Z,6.4
2023-02-06T11:43:13.805Z,7.3
2023-02-06T11:46:15.918Z,7.4
2023-02-06T11:49:17.757Z,8.3
2023-02-06T11:52:19.698Z,8.2
2023-02-06T11:55:21.688Z,9.1
2023-02-06T11:58:23.661Z,6.8
2023-02-06T12:01:25.594Z,7.3
2023-02-06T12:04:27.573Z,6.5
2023-02-06T12:07:29.530Z,8.8
2023-02-06T12:10:31.491Z,7.9
2023-02-06T12:13:33.490Z,6.3
2023-02-06T12:16:35.492Z,6.3
2023-02-06T12:19:37.383Z,5.4
2023-02-06T12:22:39.349Z,8.1
2023-02-06T12:25:41.351Z,7.1
2023-02-06T12:28:43.312Z,7
2023-02-06T12:31:45.294Z,5.5
2023-02-06T12:34:47.216Z,5.2
2023-02-06T12:37:49.230Z,6.2
2023-02-06T12:40:51.136Z,5.6
2023-02-06T12:43:53.083Z,5.8
2023-02-06T12:46:55.068Z,6.5
2023-02-06T12:49:56.994Z,10.1
2023-02-06T12:52:58.945Z,6.6
2023-02-06T12:56:00.908Z,7
2023-02-06T12:59:02.896Z,7.9
2023-02-06T13:02:04.890Z,7.6
2023-02-06T13:05:06.841Z,6.1
2023-02-06T13:08:08.788Z,9
2023-02-06T13:11:10.772Z,6.6
2023-02-06T13:14:12.737Z,9.3
2023-02-06T13:17:14.685Z,9.1
2023-02-06T13:20:16.668Z,6
2023-02-06T13:23:18.632Z,5.4
2023-02-06T13:26:20.589Z,5.1
2023-02-06T13:29:22.553Z,6
2023-02-06T13:32:24.557Z,5.5
2023-02-06T13:35:26.533Z,8.7
2023-02-06T13:38:28.475Z,6.6
2023-02-06T13:41:30.420Z,6.6
2023-02-06T13:44:32.399Z,10.8
2023-02-06T13:47:34.410Z,8.4
2023-02-06T13:50:36.390Z,8.7
2023-02-06T13:53:38.314Z,8.6
2023-02-06T13:56:40.455Z,8.7
2023-02-06T13:59:42.254Z,9
2023-02-06T14:02:44.246Z,5.4
2023-02-06T14:05:46.192Z,11.1
2023-02-06T14:08:48.140Z,7.3
2023-02-06T14:11:50.073Z,5.1
2023-02-06T14:14:52.042Z,5.4
2023-02-06T14:17:56.114Z,8.7
2023-02-06T14:20:55.974Z,5.5
2023-02-06T14:23:57.936Z,6.5
2023-02-06T14:26:59.890Z,5.7
2023-02-06T14:30:01.857Z,4.3
2023-02-06T14:33:03.817Z,6.9
2023-02-06T14:36:05.817Z,4.5
2023-02-06T14:39:07.763Z,6.4
2023-02-06T14:42:09.754Z,4.3
2023-02-06T14:45:11.683Z,5.1
2023-02-06T14:48:13.633Z,5.6
2023-02-06T14:51:15.602Z,4.6
2023-02-06T14:54:17.545Z,5.3
2023-02-06T14:57:19.515Z,6.2
2023-02-06T15:00:21.503Z,5.3
2023-02-06T15:03:23.471Z,8.7
2023-02-06T15:06:25.394Z,5.6
2023-02-06T15:09:27.381Z,6
2023-02-06T15:12:29.327Z,5.8
2023-02-06T15:15:31.300Z,4.2
2023-02-06T15:18:33.244Z,6.5
2023-02-06T15:21:35.250Z,6.7
2023-02-06T15:24:37.214Z,4.4
2023-02-06T15:27:39.172Z,5.9
2023-02-06T15:30:41.184Z,9.5
2023-02-06T15:33:43.077Z,5.7
2023-02-06T15:36:45.050Z,6.4
2023-02-06T15:39:47.014Z,5.1
2023-02-06T15:42:48.999Z,4.7
2023-02-06T15:45:51.038Z,5.9
2023-02-06T15:48:52.915Z,7.5
2023-02-06T15:51:54.901Z,10
2023-02-06T15:54:56.881Z,9.9
2023-02-06T15:57:58.809Z,9
2023-02-06T16:01:00.852Z,5.8
2023-02-06T16:04:02.752Z,6.4
2023-02-06T16:07:04.730Z,10.5
2023-02-06T16:10:06.704Z,8.9
2023-02-06T16:13:08.669Z,8.3
2023-02-06T16:16:10.822Z,5.7
2023-02-06T16:19:12.578Z,7.4
2023-02-06T16:22:14.551Z,7.4
2023-02-06T16:25:16.523Z,8
2023-02-06T16:28:18.532Z,8.5
2023-02-06T16:31:20.569Z,4.9
2023-02-06T16:34:22.443Z,6.2
2023-02-06T16:37:24.392Z,7
2023-02-06T16:40:26.350Z,6.5
2023-02-06T16:43:28.326Z,6.4
2023-02-06T16:46:30.310Z,9
2023-02-06T16:49:32.248Z,7.3
2023-02-06T16:52:34.222Z,4.5
2023-02-06T16:55:36.212Z,5.6
2023-02-06T16:58:38.167Z,7.3
2023-02-06T17:01:40.195Z,5.7
2023-02-06T17:04:42.136Z,6.5
2023-02-06T17:07:44.030Z,4
2023-02-06T17:10:46.006Z,8.8
2023-02-06T17:13:48.006Z,5.3
2023-02-06T17:16:49.942Z,8.8
2023-02-06T17:19:51.910Z,9.3
2023-02-06T17:22:53.857Z,7
2023-02-06T17:25:55.818Z,5.5
2023-02-06T17:28:57.784Z,6.5
2023-02-06T17:31:59.735Z,7.6
2023-02-06T17:35:01.692Z,10
2023-02-06T17:38:03.644Z,8
2023-02-06T17:41:05.605Z,5.2
2023-02-06T17:44:07.632Z,9
2023-02-06T17:47:09.536Z,10.9
2023-02-06T17:50:11.555Z,8.6
2023-02-06T17:53:13.487Z,8.5
2023-02-06T17:56:15.483Z,7.2
2023-02-06T17:59:17.449Z,7.1
2023-02-06T18:02:19.382Z,8.2
2023-02-06T18:05:21.350Z,9.9
2023-02-06T18:08:23.293Z,6.6
2023-02-06T18:11:25.236Z,10.3
2023-02-06T18:14:27.217Z,7.9
2023-02-06T18:17:29.172Z,8.5
2023-02-06T18:20:31.124Z,6
2023-02-06T18:23:33.096Z,10.6
2023-02-06T18:26:35.047Z,6.9
2023-02-06T18:29:48.421Z,7.6
2023-02-06T18:32:39.026Z,12.3
2023-02-06T18:35:40.992Z,8.5
2023-02-06T18:38:42.939Z,10.3
2023-02-06T18:41:44.861Z,7.2
2023-02-06T18:44:46.878Z,7
2023-02-06T18:47:48.824Z,8.6
2023-02-06T18:50:50.785Z,8.5
2023-02-06T18:53:52.704Z,9
2023-02-06T18:56:54.662Z,6.4
2023-02-06T18:59:56.627Z,7.8
2023-02-06T19:02:58.585Z,5.6
2023-02-06T19:06:00.531Z,7.2
2023-02-06T19:09:02.528Z,10
2023-02-06T19:12:04.505Z,10.4
2023-02-06T19:15:06.476Z,6.5
2023-02-06T19:18:08.450Z,9.3
2023-02-06T19:21:10.407Z,7.8
2023-02-06T19:24:12.350Z,8.3
2023-02-06T19:27:14.286Z,9.9
2023-02-06T19:30:16.267Z,7.5
2023-02-06T19:33:18.266Z,9.2
2023-02-06T19:36:20.212Z,8
2023-02-06T19:39:22.196Z,7.5
2023-02-06T19:42:24.139Z,6.6
2023-02-06T19:45:26.173Z,11.9
2023-02-06T19:48:28.062Z,7
2023-02-06T19:51:30.033Z,13.3
2023-02-06T19:54:31.983Z,12.5
2023-02-06T19:57:33.939Z,13.1
2023-02-06T20:00:36.116Z,11.3
2023-02-06T20:03:37.932Z,10.5
2023-02-06T20:06:39.856Z,6.1
2023-02-06T20:09:41.937Z,7.3
2023-02-06T20:12:43.736Z,7.9
2023-02-06T20:15:45.719Z,8.3
2023-02-06T20:18:47.669Z,11
2023-02-06T20:21:49.626Z,6.2
2023-02-06T20:24:51.572Z,8.1
2023-02-06T20:27:53.706Z,5.9
2023-02-06T20:30:55.563Z,6.6
2023-02-06T20:33:57.503Z,8.2
2023-02-06T20:36:59.411Z,7.3
2023-02-06T20:40:01.385Z,7
2023-02-06T20:43:03.363Z,7.7
2023-02-06T20:46:05.341Z,6.7
2023-02-06T20:49:07.247Z,5
2023-02-06T20:52:09.232Z,6.2
2023-02-06T20:55:11.188Z,5.6
2023-02-06T20:58:13.161Z,5.4
2023-02-06T21:01:15.204Z,7.3
2023-02-06T21:04:17.128Z,8.5
2023-02-06T21:07:19.086Z,8.8
2023-02-06T21:10:21.056Z,6.1
2023-02-06T21:13:22.993Z,7.8
2023-02-06T21:16:24.971Z,6.4
2023-02-06T21:19:26.934Z,7.3
2023-02-06T21:22:28.941Z,6.1
2023-02-06T21:25:30.864Z,5.4
2023-02-06T21:28:32.839Z,6.6
2023-02-06T21:31:37.445Z,8.3
2023-02-06T21:34:36.766Z,6
2023-02-06T21:37:38.714Z,7.5
2023-02-06T21:43:42.684Z,6.1
2023-02-06T21:46:44.645Z,5.5
2023-02-06T21:49:46.609Z,5.5
2023-02-06T21:52:48.544Z,4.7
2023-02-06T21:55:50.497Z,5.9
2023-02-06T21:58:52.469Z,7.5
2023-02-06T22:01:54.487Z,5.1
2023-02-06T22:04:56.369Z,4.8
2023-02-06T22:07:58.345Z,6.4
2023-02-06T22:11:00.302Z,5.5
2023-02-06T22:14:02.265Z,8.5
2023-02-06T22:17:04.223Z,5
2023-02-06T22:20:06.409Z,5.6
2023-02-06T22:23:08.182Z,5.3
2023-02-06T22:26:10.144Z,5
2023-02-06T22:29:12.042Z,4
2023-02-06T22:32:14.014Z,5.6
2023-02-06T22:35:15.995Z,4.7
2023-02-06T22:38:17.979Z,5.8
2023-02-06T22:41:19.921Z,3.8
2023-02-06T22:44:21.852Z,5.4
2023-02-06T22:47:23.819Z,6.7
2023-02-06T22:50:25.778Z,4.3
2023-02-06T22:53:27.742Z,5.8
2023-02-06T22:56:29.722Z,5.3
2023-02-06T22:59:31.646Z,5.3
2023-02-06T23:02:33.626Z,4.6
2023-02-06T23:05:35.660Z,5
2023-02-06T23:08:37.562Z,3.8
2023-02-06T23:11:39.512Z,4.9
2023-02-06T23:14:41.487Z,5.9
2023-02-06T23:17:43.478Z,5.6
2023-02-06T23:20:45.425Z,4.5
2023-02-06T23:23:47.417Z,4.2
2023-02-06T23:26:49.332Z,5.1
2023-02-06T23:29:51.318Z,5.1
2023-02-06T23:32:53.232Z,3.6
2023-02-06T23:35:55.201Z,3.3
2023-02-06T23:38:57.187Z,4
2023-02-06T23:41:59.156Z,4.8
2023-02-06T23:45:01.100Z,3.5
2023-02-06T23:48:03.042Z,3.9
2023-02-06T23:51:04.989Z,5
2023-02-06T23:54:07.012Z,4.1
2023-02-06T23:57:08.921Z,4.1
